createdAt,value
2023-03-12T02:41:38.215Z,96437.38
2023-03-12T02:46:38.000Z,96446.19
2023-03-12T02:51:30.077Z,96444.97
2023-03-12T02:56:27.722Z,96456.56
2023-03-12T03:01:20.434Z,96453.59
2023-03-12T03:06:13.104Z,96451.00
2023-03-12T03:11:06.464Z,96459.78
2023-03-12T03:16:02.367Z,96468.38
2023-03-12T03:21:16.530Z,96466.59
2023-03-12T03:26:08.460Z,96471.00
2023-03-12T03:31:02.134Z,96469.59
2023-03-12T03:35:55.384Z,96466.00
2023-03-12T03:40:47.075Z,96461.41
2023-03-12T03:45:38.820Z,96466.41
2023-03-12T03:50:30.503Z,96453.19
2023-03-12T03:55:23.416Z,96440.63
2023-03-12T04:00:17.825Z,96437.81
2023-03-12T04:05:10.756Z,96418.03
2023-03-12T04:10:04.226Z,96413.41
2023-03-12T04:14:56.730Z,96402.63
2023-03-12T04:19:48.493Z,96399.41
2023-03-12T04:24:40.256Z,96408.63
2023-03-12T04:29:31.936Z,96414.81
2023-03-12T04:34:23.698Z,96430.44
2023-03-12T04:39:20.214Z,96443.63
2023-03-12T04:44:13.028Z,96432.41
2023-03-12T04:49:05.345Z,96435.03
2023-03-12T05:04:15.003Z,96432.63
2023-03-12T05:09:06.758Z,96431.03
2023-03-12T05:13:58.556Z,96406.03
2023-03-12T05:18:50.276Z,96414.44
2023-03-12T05:23:43.061Z,96414.81
2023-03-12T05:28:34.747Z,96429.63
2023-03-12T05:33:28.558Z,96411.00
2023-03-12T05:43:36.802Z,96424.81
2023-03-12T05:48:29.196Z,96414.22
2023-03-12T05:53:20.856Z,96422.22
2023-03-12T05:58:12.777Z,96431.81
2023-03-12T06:03:05.386Z,96432.44
2023-03-12T06:13:03.172Z,96420.03
2023-03-12T06:17:54.894Z,96428.22
2023-03-12T06:22:46.617Z,96423.84
2023-03-12T06:27:38.333Z,96430.00
2023-03-12T06:32:30.113Z,96436.63
2023-03-12T06:37:21.898Z,96442.63
2023-03-12T06:42:14.715Z,96419.44
2023-03-12T06:47:09.365Z,96431.84
2023-03-12T07:08:16.627Z,96443.25
2023-03-12T07:13:08.996Z,96448.06
2023-03-12T07:18:04.502Z,96464.44
2023-03-12T07:33:16.581Z,96476.47
2023-03-12T07:38:12.043Z,96475.81
2023-03-12T07:48:43.630Z,96481.88
2023-03-12T07:53:35.899Z,96490.81
2023-03-12T08:14:47.733Z,96495.44
2023-03-12T08:19:39.656Z,96489.06
2023-03-12T08:40:16.670Z,96512.56
2023-03-12T08:50:18.280Z,96527.72
2023-03-12T08:55:13.764Z,96518.56
2023-03-12T09:00:12.157Z,96523.19
2023-03-12T09:05:04.905Z,96536.88
2023-03-12T09:09:56.713Z,96533.09
2023-03-12T09:19:56.824Z,96534.25
2023-03-12T09:24:52.477Z,96534.75
2023-03-12T09:34:49.875Z,96539.09
2023-03-12T09:55:28.073Z,96559.63
2023-03-12T10:06:11.879Z,96562.53
2023-03-12T10:11:32.194Z,96559.75
2023-03-12T10:16:59.226Z,96565.75
2023-03-12T10:22:30.003Z,96561.78
2023-03-12T10:27:27.642Z,96561.88
2023-03-12T10:32:37.209Z,96556.47
2023-03-12T10:37:40.512Z,96552.09
2023-03-12T10:42:33.111Z,96564.75
2023-03-12T10:47:37.015Z,96566.69
2023-03-12T10:52:28.703Z,96567.72
2023-03-12T10:57:21.060Z,96563.25
2023-03-12T11:07:48.096Z,96571.34
2023-03-12T11:28:11.885Z,96603.00
2023-03-12T11:33:05.162Z,96600.84
2023-03-12T11:38:15.892Z,96600.94
2023-03-12T11:43:43.168Z,96609.88
2023-03-12T11:49:22.180Z,96612.44
2023-03-12T11:54:40.277Z,96610.66
2023-03-12T11:59:52.595Z,96613.75
2023-03-12T12:05:03.657Z,96600.66
2023-03-12T12:10:10.767Z,96609.56
2023-03-12T12:38:14.277Z,96570.47
2023-03-12T12:43:32.152Z,96572.28
2023-03-12T12:48:39.895Z,96569.16
2023-03-12T12:53:49.941Z,96553.59
2023-03-12T12:59:32.189Z,96569.38
2023-03-12T13:04:31.916Z,96560.59
2023-03-12T13:09:43.979Z,96554.53
2023-03-12T13:14:42.999Z,96556.44
2023-03-12T13:19:44.896Z,96574.09
2023-03-12T13:24:44.475Z,96575.44
2023-03-12T13:29:51.730Z,96581.66
2023-03-12T13:34:47.129Z,96560.84
2023-03-12T13:39:38.808Z,96569.31
2023-03-12T13:44:41.550Z,96568.41
2023-03-12T13:49:52.470Z,96574.06
2023-03-12T13:54:49.235Z,96591.34
2023-03-12T13:59:54.929Z,96595.38
2023-03-12T14:15:49.684Z,96596.97
2023-03-12T14:20:47.217Z,96601.25
2023-03-12T14:25:48.260Z,96576.69
2023-03-12T14:30:59.718Z,96587.38
2023-03-12T14:36:04.256Z,96561.69
2023-03-12T14:41:14.362Z,96561.53
2023-03-12T14:51:37.058Z,96552.25
2023-03-12T14:56:38.104Z,96556.03
2023-03-12T15:01:37.460Z,96557.28
2023-03-12T15:06:48.161Z,96550.09
2023-03-12T15:11:39.997Z,96551.91
2023-03-12T15:16:31.832Z,96554.88
2023-03-12T15:21:24.864Z,96568.94
2023-03-12T15:26:32.449Z,96570.97
2023-03-12T15:31:24.470Z,96562.97
2023-03-12T15:41:57.564Z,96557.91
2023-03-12T15:46:55.227Z,96553.06
2023-03-12T15:57:53.032Z,96555.59
2023-03-12T16:03:18.327Z,96563.03
2023-03-12T16:08:41.631Z,96558.78
2023-03-12T16:13:33.429Z,96557.91
2023-03-12T16:18:25.824Z,96566.28
2023-03-12T16:23:18.816Z,96569.16
2023-03-12T16:28:15.521Z,96569.09
2023-03-12T16:33:09.124Z,96576.13
2023-03-12T16:38:02.338Z,96581.38
2023-03-12T16:43:00.293Z,96578.88
2023-03-12T16:47:59.158Z,96571.38
2023-03-12T16:52:51.787Z,96569.69
2023-03-12T16:58:11.102Z,96575.22
2023-03-12T17:03:05.580Z,96585.47
2023-03-12T17:07:59.485Z,96583.22
2023-03-12T17:12:52.340Z,96578.09
2023-03-12T17:17:44.657Z,96583.13
2023-03-12T17:37:55.937Z,96596.22
2023-03-12T17:42:48.905Z,96585.69
2023-03-12T17:47:48.960Z,96594.00
2023-03-12T17:52:41.100Z,96589.31
2023-03-12T17:57:33.242Z,96585.66
2023-03-12T18:02:26.545Z,96595.25
2023-03-12T18:07:18.836Z,96584.75
2023-03-12T18:12:12.227Z,96576.84
2023-03-12T18:17:11.426Z,96576.56
2023-03-12T18:22:04.017Z,96581.88
2023-03-12T18:26:56.987Z,96575.38
2023-03-12T18:31:48.675Z,96581.25
2023-03-12T18:36:42.047Z,96582.34
2023-03-12T18:41:33.994Z,96582.19
2023-03-12T18:46:25.855Z,96584.66
2023-03-12T18:51:17.616Z,96601.00
2023-03-12T18:56:09.325Z,96596.88
2023-03-12T19:01:01.728Z,96594.63
2023-03-12T19:06:10.974Z,96600.88
2023-03-12T19:11:15.187Z,96604.81
2023-03-12T19:21:18.655Z,96617.22
2023-03-12T19:26:10.866Z,96606.66
2023-03-12T19:31:05.848Z,96613.38
2023-03-12T19:35:58.185Z,96619.28
2023-03-12T19:40:55.490Z,96614.31
2023-03-12T19:45:55.722Z,96613.09
2023-03-12T19:50:47.885Z,96615.38
2023-03-12T19:55:40.418Z,96615.16
2023-03-12T20:00:32.308Z,96608.97
2023-03-12T20:05:24.029Z,96600.97
2023-03-12T20:10:16.090Z,96609.81
2023-03-12T20:15:08.689Z,96599.78
2023-03-12T20:20:01.144Z,96620.28
2023-03-12T20:24:53.702Z,96620.75
2023-03-12T20:29:50.573Z,96627.63
2023-03-12T20:34:42.412Z,96624.44
2023-03-12T20:39:34.136Z,96624.47
2023-03-12T20:44:25.963Z,96624.09
2023-03-12T20:49:17.753Z,96614.81
2023-03-12T20:54:10.094Z,96620.44
2023-03-12T20:59:02.024Z,96618.47
2023-03-12T21:03:57.755Z,96626.09
2023-03-12T21:13:56.284Z,96632.91
2023-03-12T21:18:48.115Z,96633.69
2023-03-12T21:23:41.748Z,96634.03
2023-03-12T21:28:34.810Z,96638.19
2023-03-12T21:33:26.488Z,96645.78
2023-03-12T21:38:18.171Z,96637.47
2023-03-12T21:43:09.867Z,96630.00
2023-03-12T21:48:01.714Z,96637.81
2023-03-12T21:52:53.623Z,96628.69
2023-03-12T21:57:45.894Z,96628.44
2023-03-12T22:02:37.584Z,96627.16
2023-03-12T22:07:30.036Z,96620.94
2023-03-12T22:12:21.734Z,96611.47
2023-03-12T22:17:13.459Z,96615.47
2023-03-12T22:22:05.268Z,96614.47
2023-03-12T22:26:56.938Z,96615.41
2023-03-12T22:31:48.836Z,96616.16
2023-03-12T22:36:40.955Z,96611.88
2023-03-12T22:41:32.925Z,96602.66
2023-03-12T22:46:27.310Z,96595.47
2023-03-12T22:51:19.117Z,96578.28
2023-03-12T22:56:13.808Z,96564.47
2023-03-12T23:06:29.964Z,96548.78
2023-03-12T23:11:25.616Z,96550.53
2023-03-12T23:16:22.368Z,96544.84
2023-03-12T23:21:21.853Z,96536.88
2023-03-12T23:26:31.768Z,96527.22
2023-03-12T23:31:24.495Z,96535.94
2023-03-12T23:36:19.159Z,96526.28
2023-03-12T23:41:20.953Z,96526.41
2023-03-12T23:46:16.703Z,96523.78
2023-03-12T23:51:21.090Z,96517.84
2023-03-12T23:56:19.312Z,96509.06
